Terminal Aerodrome Forecast
Issued by NWS

Home | Current Version | Previous Version | Text Only | Print | Product List | Glossary Off
Versions: 1 2 3 4 5 6 7 8 9 10 11 12 13 14 15 16 17 18 19 20
000 FTUS41 KBOX 311729 TAFBAF TAF KBAF 311729Z 3118/0118 03005KT P6SM OVC050 FM010900 03009KT P6SM OVC090 FM011500 03012G22KT P6SM OVC015 FM011700 03013G22KT P6SM -SHRA OVC015=

USA.gov is the U.S. government's official web portal to all federal, state and local government web resources and services.